sensor_id;sensor_type;location;lat;lon;timestamp;pressure;altitude;pressure_sealevel;temperature;humidity
20350;BME280;10332;50.208;18.988;2022-07-23T00:00:31;98047.53;;;25.36;62.59
20350;BME280;10332;50.208;18.988;2022-07-23T00:03:06;98056.59;;;25.35;62.60
20350;BME280;10332;50.208;18.988;2022-07-23T00:05:34;98053.66;;;25.30;62.99
20350;BME280;10332;50.208;18.988;2022-07-23T00:08:03;98049.09;;;25.24;62.98
20350;BME280;10332;50.208;18.988;2022-07-23T00:10:33;98047.03;;;25.19;63.05
20350;BME280;10332;50.208;18.988;2022-07-23T00:13:00;98044.97;;;25.14;62.86
20350;BME280;10332;50.208;18.988;2022-07-23T00:15:28;98049.88;;;25.11;63.25
20350;BME280;10332;50.208;18.988;2022-07-23T00:17:55;98049.47;;;25.07;63.29
20350;BME280;10332;50.208;18.988;2022-07-23T00:20:22;98054.97;;;25.06;63.42
20350;BME280;10332;50.208;18.988;2022-07-23T00:22:55;98045.69;;;25.02;63.67
20350;BME280;10332;50.208;18.988;2022-07-23T00:25:24;98048.94;;;24.97;63.88
20350;BME280;10332;50.208;18.988;2022-07-23T00:27:57;98052.41;;;24.91;63.97
20350;BME280;10332;50.208;18.988;2022-07-23T00:30:25;98051.56;;;24.84;64.45
20350;BME280;10332;50.208;18.988;2022-07-23T00:33:00;98045.75;;;24.74;64.43
20350;BME280;10332;50.208;18.988;2022-07-23T00:35:33;98039.78;;;24.72;64.70
20350;BME280;10332;50.208;18.988;2022-07-23T00:38:02;98043.00;;;24.67;65.15
20350;BME280;10332;50.208;18.988;2022-07-23T00:40:30;98048.75;;;24.64;65.11
20350;BME280;10332;50.208;18.988;2022-07-23T00:42:57;98051.78;;;24.61;65.21
20350;BME280;10332;50.208;18.988;2022-07-23T00:45:26;98041.94;;;24.61;64.83
20350;BME280;10332;50.208;18.988;2022-07-23T00:47:54;98053.66;;;24.60;65.10
20350;BME280;10332;50.208;18.988;2022-07-23T00:50:22;98061.03;;;24.58;65.04
20350;BME280;10332;50.208;18.988;2022-07-23T00:52:49;98060.16;;;24.51;65.34
20350;BME280;10332;50.208;18.988;2022-07-23T00:55:17;98060.75;;;24.47;65.49
20350;BME280;10332;50.208;18.988;2022-07-23T00:57:45;98066.41;;;24.37;66.56
20350;BME280;10332;50.208;18.988;2022-07-23T01:00:14;98061.38;;;24.27;66.69
20350;BME280;10332;50.208;18.988;2022-07-23T01:02:42;98061.75;;;24.24;66.47
20350;BME280;10332;50.208;18.988;2022-07-23T01:05:10;98060.94;;;24.24;66.82
20350;BME280;10332;50.208;18.988;2022-07-23T01:07:38;98053.94;;;24.23;67.39
20350;BME280;10332;50.208;18.988;2022-07-23T01:10:07;98059.91;;;24.25;67.32
20350;BME280;10332;50.208;18.988;2022-07-23T01:12:53;98060.56;;;24.27;67.07
20350;BME280;10332;50.208;18.988;2022-07-23T01:15:21;98060.16;;;24.30;66.64
20350;BME280;10332;50.208;18.988;2022-07-23T01:17:49;98066.53;;;24.29;66.75
20350;BME280;10332;50.208;18.988;2022-07-23T01:20:17;98054.19;;;24.28;66.79
20350;BME280;10332;50.208;18.988;2022-07-23T01:22:46;98061.13;;;24.22;66.98
20350;BME280;10332;50.208;18.988;2022-07-23T01:25:13;98055.78;;;24.22;66.95
20350;BME280;10332;50.208;18.988;2022-07-23T01:27:41;98049.63;;;24.22;66.91
20350;BME280;10332;50.208;18.988;2022-07-23T01:30:10;98053.31;;;24.21;66.81
20350;BME280;10332;50.208;18.988;2022-07-23T01:32:38;98046.69;;;24.17;66.75
20350;BME280;10332;50.208;18.988;2022-07-23T01:35:07;98052.84;;;24.17;66.90
20350;BME280;10332;50.208;18.988;2022-07-23T01:37:35;98045.88;;;24.16;66.77
20350;BME280;10332;50.208;18.988;2022-07-23T01:40:04;98046.53;;;24.18;66.53
20350;BME280;10332;50.208;18.988;2022-07-23T01:42:32;98052.03;;;24.17;66.33
20350;BME280;10332;50.208;18.988;2022-07-23T01:45:02;98052.84;;;24.17;66.57
20350;BME280;10332;50.208;18.988;2022-07-23T01:47:30;98052.44;;;24.14;66.56
20350;BME280;10332;50.208;18.988;2022-07-23T01:49:57;98057.13;;;24.12;66.61
20350;BME280;10332;50.208;18.988;2022-07-23T01:52:24;98052.00;;;24.10;66.76
20350;BME280;10332;50.208;18.988;2022-07-23T01:54:51;98058.16;;;24.11;66.35
20350;BME280;10332;50.208;18.988;2022-07-23T01:57:19;98054.19;;;24.06;67.03
20350;BME280;10332;50.208;18.988;2022-07-23T01:59:46;98049.06;;;24.05;66.46
20350;BME280;10332;50.208;18.988;2022-07-23T02:02:13;98042.47;;;24.01;66.46
20350;BME280;10332;50.208;18.988;2022-07-23T02:04:41;98054.09;;;23.93;67.03
20350;BME280;10332;50.208;18.988;2022-07-23T02:07:08;98051.09;;;23.82;67.36
20350;BME280;10332;50.208;18.988;2022-07-23T02:09:36;98052.91;;;23.81;67.17
20350;BME280;10332;50.208;18.988;2022-07-23T02:12:03;98051.28;;;23.80;67.26
20350;BME280;10332;50.208;18.988;2022-07-23T02:14:31;98050.66;;;23.78;67.54
20350;BME280;10332;50.208;18.988;2022-07-23T02:16:59;98051.78;;;23.69;68.18
20350;BME280;10332;50.208;18.988;2022-07-23T02:19:26;98052.09;;;23.59;68.39
20350;BME280;10332;50.208;18.988;2022-07-23T02:21:54;98047.75;;;23.58;67.99
20350;BME280;10332;50.208;18.988;2022-07-23T02:24:21;98054.09;;;23.57;68.34
20350;BME280;10332;50.208;18.988;2022-07-23T02:26:48;98054.00;;;23.50;68.68
20350;BME280;10332;50.208;18.988;2022-07-23T02:29:16;98052.75;;;23.46;68.66
20350;BME280;10332;50.208;18.988;2022-07-23T02:31:43;98046.41;;;23.47;68.68
20350;BME280;10332;50.208;18.988;2022-07-23T02:34:11;98046.94;;;23.43;68.89
20350;BME280;10332;50.208;18.988;2022-07-23T02:36:39;98043.22;;;23.37;69.10
20350;BME280;10332;50.208;18.988;2022-07-23T02:39:07;98043.31;;;23.29;69.27
20350;BME280;10332;50.208;18.988;2022-07-23T02:41:34;98038.34;;;23.26;69.53
20350;BME280;10332;50.208;18.988;2022-07-23T02:44:02;98043.22;;;23.22;69.97
20350;BME280;10332;50.208;18.988;2022-07-23T02:46:29;98045.69;;;23.24;69.92
20350;BME280;10332;50.208;18.988;2022-07-23T02:48:56;98044.69;;;23.25;69.83
20350;BME280;10332;50.208;18.988;2022-07-23T02:51:25;98039.34;;;23.25;69.95
20350;BME280;10332;50.208;18.988;2022-07-23T02:53:52;98039.00;;;23.28;69.95
20350;BME280;10332;50.208;18.988;2022-07-23T02:56:19;98030.34;;;23.26;69.92
20350;BME280;10332;50.208;18.988;2022-07-23T02:58:46;98027.03;;;23.24;69.82
20350;BME280;10332;50.208;18.988;2022-07-23T03:01:14;98030.00;;;23.14;70.13
20350;BME280;10332;50.208;18.988;2022-07-23T03:03:44;98023.22;;;23.12;70.22
20350;BME280;10332;50.208;18.988;2022-07-23T03:06:11;98029.91;;;23.08;69.97
20350;BME280;10332;50.208;18.988;2022-07-23T03:08:39;98025.97;;;23.04;70.25
20350;BME280;10332;50.208;18.988;2022-07-23T03:11:06;98025.69;;;22.99;70.45
20350;BME280;10332;50.208;18.988;2022-07-23T03:13:39;98027.34;;;23.00;70.11
20350;BME280;10332;50.208;18.988;2022-07-23T03:16:07;98032.13;;;23.04;70.00
20350;BME280;10332;50.208;18.988;2022-07-23T03:18:35;98024.97;;;23.05;69.80
20350;BME280;10332;50.208;18.988;2022-07-23T03:21:07;98020.91;;;23.09;69.84
20350;BME280;10332;50.208;18.988;2022-07-23T03:23:35;98025.50;;;23.15;69.74
20350;BME280;10332;50.208;18.988;2022-07-23T03:26:03;98021.81;;;23.16;69.90
20350;BME280;10332;50.208;18.988;2022-07-23T03:28:30;98027.44;;;23.21;69.38
20350;BME280;10332;50.208;18.988;2022-07-23T03:30:58;98025.00;;;23.26;69.52
20350;BME280;10332;50.208;18.988;2022-07-23T03:33:25;98026.13;;;23.32;69.47
20350;BME280;10332;50.208;18.988;2022-07-23T03:35:53;98015.53;;;23.38;68.85
20350;BME280;10332;50.208;18.988;2022-07-23T03:38:20;98012.50;;;23.41;69.18
20350;BME280;10332;50.208;18.988;2022-07-23T03:40:48;98020.47;;;23.41;69.64
20350;BME280;10332;50.208;18.988;2022-07-23T03:43:15;98025.81;;;23.41;69.64
20350;BME280;10332;50.208;18.988;2022-07-23T03:45:43;98025.06;;;23.47;69.02
20350;BME280;10332;50.208;18.988;2022-07-23T03:48:10;98020.66;;;23.55;69.13
20350;BME280;10332;50.208;18.988;2022-07-23T03:50:38;98032.22;;;23.62;68.86
20350;BME280;10332;50.208;18.988;2022-07-23T03:53:05;98040.88;;;23.64;68.59
20350;BME280;10332;50.208;18.988;2022-07-23T03:55:32;98045.44;;;23.70;68.64
20350;BME280;10332;50.208;18.988;2022-07-23T03:58:00;98042.41;;;23.73;68.43
20350;BME280;10332;50.208;18.988;2022-07-23T04:00:27;98040.59;;;23.80;68.18
20350;BME280;10332;50.208;18.988;2022-07-23T04:02:54;98034.25;;;23.81;68.88
20350;BME280;10332;50.208;18.988;2022-07-23T04:05:22;98041.91;;;23.84;68.63
20350;BME280;10332;50.208;18.988;2022-07-23T04:07:49;98045.19;;;23.86;69.20
20350;BME280;10332;50.208;18.988;2022-07-23T04:10:16;98050.13;;;23.89;68.77
20350;BME280;10332;50.208;18.988;2022-07-23T04:12:44;98038.00;;;23.87;69.11
20350;BME280;10332;50.208;18.988;2022-07-23T04:15:11;98046.63;;;23.89;69.27
20350;BME280;10332;50.208;18.988;2022-07-23T04:17:38;98051.41;;;23.93;69.10
20350;BME280;10332;50.208;18.988;2022-07-23T04:20:06;98042.84;;;23.98;68.91
20350;BME280;10332;50.208;18.988;2022-07-23T04:22:33;98038.38;;;24.05;68.72
20350;BME280;10332;50.208;18.988;2022-07-23T04:25:01;98044.41;;;24.14;68.81
20350;BME280;10332;50.208;18.988;2022-07-23T04:27:29;98041.22;;;24.25;68.35
20350;BME280;10332;50.208;18.988;2022-07-23T04:29:56;98041.94;;;24.33;67.99
20350;BME280;10332;50.208;18.988;2022-07-23T04:32:23;98044.88;;;24.39;68.08
20350;BME280;10332;50.208;18.988;2022-07-23T04:34:51;98036.66;;;24.40;68.71
20350;BME280;10332;50.208;18.988;2022-07-23T04:37:18;98032.16;;;24.41;68.72
20350;BME280;10332;50.208;18.988;2022-07-23T04:39:45;98040.41;;;24.46;68.29
20350;BME280;10332;50.208;18.988;2022-07-23T04:42:13;98035.91;;;24.46;68.26
20350;BME280;10332;50.208;18.988;2022-07-23T04:44:40;98033.09;;;24.54;68.02
20350;BME280;10332;50.208;18.988;2022-07-23T04:47:07;98040.75;;;24.64;67.54
20350;BME280;10332;50.208;18.988;2022-07-23T04:49:35;98027.03;;;24.74;67.30
20350;BME280;10332;50.208;18.988;2022-07-23T04:52:03;98034.09;;;24.81;66.97
20350;BME280;10332;50.208;18.988;2022-07-23T04:54:30;98033.28;;;24.87;66.94
20350;BME280;10332;50.208;18.988;2022-07-23T04:56:57;98032.91;;;24.90;66.76
20350;BME280;10332;50.208;18.988;2022-07-23T04:59:25;98030.41;;;24.89;66.87
20350;BME280;10332;50.208;18.988;2022-07-23T05:01:52;98027.97;;;24.94;66.40
20350;BME280;10332;50.208;18.988;2022-07-23T05:04:19;98032.97;;;25.04;66.32
20350;BME280;10332;50.208;18.988;2022-07-23T05:06:47;98032.63;;;25.13;66.10
20350;BME280;10332;50.208;18.988;2022-07-23T05:09:14;98029.56;;;25.16;65.93
20350;BME280;10332;50.208;18.988;2022-07-23T05:11:42;98030.34;;;25.10;66.16
20350;BME280;10332;50.208;18.988;2022-07-23T05:14:10;98037.34;;;25.11;66.19
20350;BME280;10332;50.208;18.988;2022-07-23T05:16:39;98027.28;;;25.13;66.66
20350;BME280;10332;50.208;18.988;2022-07-23T05:19:07;98024.03;;;25.18;66.26
20350;BME280;10332;50.208;18.988;2022-07-23T05:21:34;98032.88;;;25.25;66.39
20350;BME280;10332;50.208;18.988;2022-07-23T05:24:02;98032.06;;;25.31;66.27
20350;BME280;10332;50.208;18.988;2022-07-23T05:26:30;98024.50;;;25.35;66.62
20350;BME280;10332;50.208;18.988;2022-07-23T05:28:57;98034.16;;;25.42;66.14
20350;BME280;10332;50.208;18.988;2022-07-23T05:31:24;98034.81;;;25.51;66.22
20350;BME280;10332;50.208;18.988;2022-07-23T05:33:52;98035.66;;;25.58;66.06
20350;BME280;10332;50.208;18.988;2022-07-23T05:36:20;98032.81;;;25.66;65.86
20350;BME280;10332;50.208;18.988;2022-07-23T05:38:47;98030.19;;;25.73;65.61
20350;BME280;10332;50.208;18.988;2022-07-23T05:41:14;98024.88;;;25.80;65.46
20350;BME280;10332;50.208;18.988;2022-07-23T05:43:41;98026.31;;;25.89;65.39
20350;BME280;10332;50.208;18.988;2022-07-23T05:46:09;98019.75;;;25.98;64.92
20350;BME280;10332;50.208;18.988;2022-07-23T05:48:37;98016.03;;;25.99;65.21
20350;BME280;10332;50.208;18.988;2022-07-23T05:51:04;98018.50;;;26.00;65.55
20350;BME280;10332;50.208;18.988;2022-07-23T05:53:35;98015.19;;;26.05;65.56
20350;BME280;10332;50.208;18.988;2022-07-23T05:56:03;98005.31;;;26.06;65.56
20350;BME280;10332;50.208;18.988;2022-07-23T05:58:30;97999.56;;;26.02;65.99
20350;BME280;10332;50.208;18.988;2022-07-23T06:00:57;98004.91;;;26.02;66.29
20350;BME280;10332;50.208;18.988;2022-07-23T06:03:25;97991.31;;;25.97;66.74
20350;BME280;10332;50.208;18.988;2022-07-23T06:05:52;97985.56;;;26.00;66.53
20350;BME280;10332;50.208;18.988;2022-07-23T06:08:19;97984.31;;;26.09;66.28
20350;BME280;10332;50.208;18.988;2022-07-23T06:10:47;97981.84;;;26.14;66.56
20350;BME280;10332;50.208;18.988;2022-07-23T06:13:17;97976.09;;;26.17;67.13
20350;BME280;10332;50.208;18.988;2022-07-23T06:15:45;97971.56;;;26.24;67.14
20350;BME280;10332;50.208;18.988;2022-07-23T06:18:12;97976.50;;;26.27;67.63
20350;BME280;10332;50.208;18.988;2022-07-23T06:20:40;97971.34;;;26.39;67.51
20350;BME280;10332;50.208;18.988;2022-07-23T06:23:07;97974.44;;;26.49;67.83
20350;BME280;10332;50.208;18.988;2022-07-23T06:25:34;97971.72;;;26.63;67.61
20350;BME280;10332;50.208;18.988;2022-07-23T06:28:02;97977.09;;;26.69;68.09
20350;BME280;10332;50.208;18.988;2022-07-23T06:30:29;97978.66;;;26.83;68.06
20350;BME280;10332;50.208;18.988;2022-07-23T06:32:56;97974.28;;;26.96;67.91
20350;BME280;10332;50.208;18.988;2022-07-23T06:35:24;97977.41;;;27.06;67.98
20350;BME280;10332;50.208;18.988;2022-07-23T06:37:51;97984.53;;;27.25;67.27
20350;BME280;10332;50.208;18.988;2022-07-23T06:40:19;97981.97;;;27.37;67.12
20350;BME280;10332;50.208;18.988;2022-07-23T06:42:47;97995.97;;;27.46;66.95
20350;BME280;10332;50.208;18.988;2022-07-23T06:45:14;97990.09;;;27.62;66.31
20350;BME280;10332;50.208;18.988;2022-07-23T06:47:41;97988.59;;;27.73;65.93
20350;BME280;10332;50.208;18.988;2022-07-23T06:50:10;97989.94;;;27.88;65.20
20350;BME280;10332;50.208;18.988;2022-07-23T06:52:37;97988.06;;;27.95;64.87
20350;BME280;10332;50.208;18.988;2022-07-23T06:55:09;97990.94;;;28.19;64.63
20350;BME280;10332;50.208;18.988;2022-07-23T06:57:36;97988.91;;;28.39;64.08
20350;BME280;10332;50.208;18.988;2022-07-23T07:00:05;97985.66;;;28.55;62.96
20350;BME280;10332;50.208;18.988;2022-07-23T07:02:33;97989.06;;;28.69;61.88
20350;BME280;10332;50.208;18.988;2022-07-23T07:05:00;97983.25;;;28.91;61.52
20350;BME280;10332;50.208;18.988;2022-07-23T07:07:33;97988.25;;;29.05;60.46
20350;BME280;10332;50.208;18.988;2022-07-23T07:10:05;97983.31;;;29.21;58.56
20350;BME280;10332;50.208;18.988;2022-07-23T07:12:38;97985.38;;;29.37;57.92
20350;BME280;10332;50.208;18.988;2022-07-23T07:15:05;97976.69;;;29.53;57.61
20350;BME280;10332;50.208;18.988;2022-07-23T07:17:33;97976.50;;;29.66;57.09
20350;BME280;10332;50.208;18.988;2022-07-23T07:20:00;97977.50;;;29.84;56.18
20350;BME280;10332;50.208;18.988;2022-07-23T07:22:27;97978.44;;;30.01;55.91
20350;BME280;10332;50.208;18.988;2022-07-23T07:24:55;97978.59;;;30.18;55.14
20350;BME280;10332;50.208;18.988;2022-07-23T07:27:22;97983.31;;;30.34;54.30
20350;BME280;10332;50.208;18.988;2022-07-23T07:29:49;97988.59;;;30.41;52.51
20350;BME280;10332;50.208;18.988;2022-07-23T07:32:17;97986.00;;;30.58;52.21
20350;BME280;10332;50.208;18.988;2022-07-23T07:35:05;97988.84;;;30.74;51.51
20350;BME280;10332;50.208;18.988;2022-07-23T07:37:33;97993.03;;;30.94;50.90
20350;BME280;10332;50.208;18.988;2022-07-23T07:40:01;97993.81;;;31.06;50.73
20350;BME280;10332;50.208;18.988;2022-07-23T07:42:28;98000.47;;;31.27;50.77
20350;BME280;10332;50.208;18.988;2022-07-23T07:44:56;97997.34;;;31.47;49.17
20350;BME280;10332;50.208;18.988;2022-07-23T07:47:23;98003.19;;;31.55;48.34
20350;BME280;10332;50.208;18.988;2022-07-23T07:49:51;98010.59;;;31.48;46.52
20350;BME280;10332;50.208;18.988;2022-07-23T07:52:18;98004.25;;;31.71;46.17
20350;BME280;10332;50.208;18.988;2022-07-23T07:54:46;98000.34;;;31.90;45.66
20350;BME280;10332;50.208;18.988;2022-07-23T07:57:14;98010.50;;;32.00;45.29
20350;BME280;10332;50.208;18.988;2022-07-23T07:59:43;98010.91;;;32.26;45.65
20350;BME280;10332;50.208;18.988;2022-07-23T08:02:11;98006.91;;;32.28;44.69
20350;BME280;10332;50.208;18.988;2022-07-23T08:04:39;98001.59;;;32.33;44.75
20350;BME280;10332;50.208;18.988;2022-07-23T08:07:06;98002.25;;;32.40;45.41
20350;BME280;10332;50.208;18.988;2022-07-23T08:09:33;97998.88;;;32.50;45.25
20350;BME280;10332;50.208;18.988;2022-07-23T08:12:01;97985.19;;;32.57;44.89
20350;BME280;10332;50.208;18.988;2022-07-23T08:14:28;97987.53;;;32.70;45.15
20350;BME280;10332;50.208;18.988;2022-07-23T08:16:55;97983.75;;;32.71;44.64
20350;BME280;10332;50.208;18.988;2022-07-23T08:19:40;97975.00;;;32.64;43.73
20350;BME280;10332;50.208;18.988;2022-07-23T08:22:08;97970.38;;;32.81;44.31
20350;BME280;10332;50.208;18.988;2022-07-23T08:24:35;97960.19;;;32.88;44.28
20350;BME280;10332;50.208;18.988;2022-07-23T08:27:03;97952.25;;;32.98;44.97
20350;BME280;10332;50.208;18.988;2022-07-23T08:29:30;97952.16;;;33.37;45.35
20350;BME280;10332;50.208;18.988;2022-07-23T08:31:57;97956.41;;;33.55;45.26
20350;BME280;10332;50.208;18.988;2022-07-23T08:34:26;97956.22;;;33.67;43.13
20350;BME280;10332;50.208;18.988;2022-07-23T08:36:53;97962.00;;;33.75;42.30
20350;BME280;10332;50.208;18.988;2022-07-23T08:39:21;97965.84;;;33.79;42.34
20350;BME280;10332;50.208;18.988;2022-07-23T08:41:49;97970.09;;;33.97;42.38
20350;BME280;10332;50.208;18.988;2022-07-23T08:44:17;97968.63;;;34.22;42.17
20350;BME280;10332;50.208;18.988;2022-07-23T08:46:44;97973.09;;;34.38;41.67
20350;BME280;10332;50.208;18.988;2022-07-23T08:49:13;97976.97;;;34.42;40.30
20350;BME280;10332;50.208;18.988;2022-07-23T08:51:41;97975.75;;;34.33;40.67
20350;BME280;10332;50.208;18.988;2022-07-23T08:54:09;97964.41;;;34.36;40.79
20350;BME280;10332;50.208;18.988;2022-07-23T08:56:37;97961.78;;;34.46;41.29
20350;BME280;10332;50.208;18.988;2022-07-23T08:59:04;97961.31;;;34.59;40.65
20350;BME280;10332;50.208;18.988;2022-07-23T09:01:32;97964.59;;;34.66;40.55
20350;BME280;10332;50.208;18.988;2022-07-23T09:04:01;97971.19;;;34.81;39.96
20350;BME280;10332;50.208;18.988;2022-07-23T09:06:29;97963.13;;;34.91;39.71
20350;BME280;10332;50.208;18.988;2022-07-23T09:08:56;97965.91;;;35.06;39.15
20350;BME280;10332;50.208;18.988;2022-07-23T09:11:24;97972.44;;;35.10;37.02
20350;BME280;10332;50.208;18.988;2022-07-23T09:13:53;97979.50;;;35.11;36.58
20350;BME280;10332;50.208;18.988;2022-07-23T09:16:28;97976.28;;;35.24;37.65
20350;BME280;10332;50.208;18.988;2022-07-23T09:19:06;97975.22;;;35.31;36.68
20350;BME280;10332;50.208;18.988;2022-07-23T09:21:39;97964.97;;;35.58;35.46
20350;BME280;10332;50.208;18.988;2022-07-23T09:24:10;97974.03;;;36.15;34.74
20350;BME280;10332;50.208;18.988;2022-07-23T09:26:47;97972.84;;;36.72;32.53
20350;BME280;10332;50.208;18.988;2022-07-23T09:29:23;97971.25;;;37.40;31.90
20350;BME280;10332;50.208;18.988;2022-07-23T09:31:58;97980.00;;;37.82;27.75
20350;BME280;10332;50.208;18.988;2022-07-23T09:34:36;97975.28;;;38.26;28.85
20350;BME280;10332;50.208;18.988;2022-07-23T09:37:18;97981.63;;;40.49;25.55
20350;BME280;10332;50.208;18.988;2022-07-23T09:39:47;97991.38;;;46.19;21.51
20350;BME280;10332;50.208;18.988;2022-07-23T09:42:25;98005.19;;;51.89;17.01
20350;BME280;10332;50.208;18.988;2022-07-23T09:44:58;98010.66;;;56.16;14.48
20350;BME280;10332;50.208;18.988;2022-07-23T09:47:30;98008.44;;;55.83;13.37
20350;BME280;10332;50.208;18.988;2022-07-23T09:52:46;97999.44;;;48.83;16.98
20350;BME280;10332;50.208;18.988;2022-07-23T09:55:17;97998.41;;;50.35;16.49
20350;BME280;10332;50.208;18.988;2022-07-23T09:57:46;97989.63;;;49.71;16.87
20350;BME280;10332;50.208;18.988;2022-07-23T10:00:24;97987.16;;;48.37;17.40
20350;BME280;10332;50.208;18.988;2022-07-23T10:02:52;97980.66;;;48.92;17.39
20350;BME280;10332;50.208;18.988;2022-07-23T10:05:20;97977.59;;;51.47;16.21
20350;BME280;10332;50.208;18.988;2022-07-23T10:07:50;97979.34;;;50.79;17.07
20350;BME280;10332;50.208;18.988;2022-07-23T10:10:22;97976.56;;;50.14;17.06
20350;BME280;10332;50.208;18.988;2022-07-23T10:12:55;97972.94;;;51.58;16.05
20350;BME280;10332;50.208;18.988;2022-07-23T10:15:48;97977.16;;;50.92;16.69
20350;BME280;10332;50.208;18.988;2022-07-23T10:18:16;97970.22;;;49.56;17.88
20350;BME280;10332;50.208;18.988;2022-07-23T10:20:44;97967.41;;;48.70;17.30
20350;BME280;10332;50.208;18.988;2022-07-23T10:23:34;97958.75;;;49.57;16.14
20350;BME280;10332;50.208;18.988;2022-07-23T10:35:27;97967.41;;;52.29;14.14
20350;BME280;10332;50.208;18.988;2022-07-23T10:38:57;97971.44;;;54.86;12.64
20350;BME280;10332;50.208;18.988;2022-07-23T10:41:38;97964.63;;;55.01;12.82
20350;BME280;10332;50.208;18.988;2022-07-23T10:44:12;97966.81;;;51.16;14.96
20350;BME280;10332;50.208;18.988;2022-07-23T10:47:04;97951.44;;;48.98;16.26
20350;BME280;10332;50.208;18.988;2022-07-23T10:49:36;97951.34;;;48.16;17.29
20350;BME280;10332;50.208;18.988;2022-07-23T10:52:25;97935.06;;;47.30;17.64
20350;BME280;10332;50.208;18.988;2022-07-23T10:57:51;97928.34;;;46.21;18.75
20350;BME280;10332;50.208;18.988;2022-07-23T11:00:27;97922.66;;;45.72;19.73
20350;BME280;10332;50.208;18.988;2022-07-23T11:02:59;97917.84;;;44.89;20.54
20350;BME280;10332;50.208;18.988;2022-07-23T11:05:45;97914.34;;;43.69;21.03
20350;BME280;10332;50.208;18.988;2022-07-23T11:08:17;97903.69;;;42.76;21.86
20350;BME280;10332;50.208;18.988;2022-07-23T11:11:09;97898.81;;;42.25;22.37
20350;BME280;10332;50.208;18.988;2022-07-23T11:13:44;97897.63;;;41.13;23.22
20350;BME280;10332;50.208;18.988;2022-07-23T11:16:18;97901.78;;;41.11;23.73
20350;BME280;10332;50.208;18.988;2022-07-23T11:18:58;97893.38;;;41.07;23.55
20350;BME280;10332;50.208;18.988;2022-07-23T11:21:40;97890.75;;;40.89;23.52
20350;BME280;10332;50.208;18.988;2022-07-23T11:24:17;97883.34;;;40.89;23.74
20350;BME280;10332;50.208;18.988;2022-07-23T11:26:59;97881.25;;;40.72;23.93
20350;BME280;10332;50.208;18.988;2022-07-23T11:32:28;97889.56;;;40.67;23.84
20350;BME280;10332;50.208;18.988;2022-07-23T11:34:56;97882.84;;;40.60;24.23
20350;BME280;10332;50.208;18.988;2022-07-23T11:37:39;97882.88;;;40.73;23.41
20350;BME280;10332;50.208;18.988;2022-07-23T11:40:13;97864.84;;;40.45;23.43
20350;BME280;10332;50.208;18.988;2022-07-23T11:45:23;97864.69;;;40.77;23.54
20350;BME280;10332;50.208;18.988;2022-07-23T11:47:51;97862.38;;;41.34;23.08
20350;BME280;10332;50.208;18.988;2022-07-23T11:50:18;97858.22;;;41.68;23.34
20350;BME280;10332;50.208;18.988;2022-07-23T11:52:46;97849.28;;;41.76;22.62
20350;BME280;10332;50.208;18.988;2022-07-23T11:55:13;97853.97;;;42.07;22.96
20350;BME280;10332;50.208;18.988;2022-07-23T11:57:44;97839.53;;;42.32;22.48
20350;BME280;10332;50.208;18.988;2022-07-23T12:00:15;97838.63;;;42.45;22.34
20350;BME280;10332;50.208;18.988;2022-07-23T12:02:55;97837.50;;;42.46;22.51
20350;BME280;10332;50.208;18.988;2022-07-23T12:05:27;97833.56;;;42.30;22.35
20350;BME280;10332;50.208;18.988;2022-07-23T12:07:57;97823.28;;;42.44;22.24
20350;BME280;10332;50.208;18.988;2022-07-23T12:10:41;97837.88;;;42.14;22.30
20350;BME280;10332;50.208;18.988;2022-07-23T12:13:14;97836.50;;;42.34;21.84
20350;BME280;10332;50.208;18.988;2022-07-23T12:15:51;97835.50;;;42.30;21.79
20350;BME280;10332;50.208;18.988;2022-07-23T12:18:23;97811.59;;;41.23;22.91
20350;BME280;10332;50.208;18.988;2022-07-23T12:20:56;97834.69;;;40.72;23.52
20350;BME280;10332;50.208;18.988;2022-07-23T12:23:26;97834.91;;;39.75;24.67
20350;BME280;10332;50.208;18.988;2022-07-23T12:25:55;97827.41;;;39.66;24.72
20350;BME280;10332;50.208;18.988;2022-07-23T12:28:30;97828.13;;;39.21;25.01
20350;BME280;10332;50.208;18.988;2022-07-23T12:31:00;97819.31;;;38.86;25.55
20350;BME280;10332;50.208;18.988;2022-07-23T12:33:35;97807.84;;;38.65;25.98
20350;BME280;10332;50.208;18.988;2022-07-23T12:36:07;97805.03;;;38.27;26.04
20350;BME280;10332;50.208;18.988;2022-07-23T12:38:47;97806.31;;;37.82;26.54
20350;BME280;10332;50.208;18.988;2022-07-23T12:44:14;97801.50;;;37.01;27.77
20350;BME280;10332;50.208;18.988;2022-07-23T12:46:42;97786.66;;;36.78;27.91
20350;BME280;10332;50.208;18.988;2022-07-23T12:49:09;97785.94;;;36.62;27.92
20350;BME280;10332;50.208;18.988;2022-07-23T12:51:39;97791.50;;;36.42;28.65
20350;BME280;10332;50.208;18.988;2022-07-23T12:54:27;97789.84;;;36.30;28.89
20350;BME280;10332;50.208;18.988;2022-07-23T12:56:55;97789.59;;;36.32;29.30
20350;BME280;10332;50.208;18.988;2022-07-23T12:59:22;97775.44;;;36.40;29.17
20350;BME280;10332;50.208;18.988;2022-07-23T13:01:56;97782.69;;;36.60;28.90
20350;BME280;10332;50.208;18.988;2022-07-23T13:04:26;97787.06;;;37.05;28.97
20350;BME280;10332;50.208;18.988;2022-07-23T13:06:59;97782.19;;;37.36;28.45
20350;BME280;10332;50.208;18.988;2022-07-23T13:09:34;97789.31;;;37.32;28.30
20350;BME280;10332;50.208;18.988;2022-07-23T13:12:09;97795.66;;;37.22;28.48
20350;BME280;10332;50.208;18.988;2022-07-23T13:14:38;97789.09;;;36.84;28.49
20350;BME280;10332;50.208;18.988;2022-07-23T13:17:06;97785.19;;;36.51;28.89
20350;BME280;10332;50.208;18.988;2022-07-23T13:19:33;97787.97;;;36.31;29.76
20350;BME280;10332;50.208;18.988;2022-07-23T13:22:01;97777.38;;;36.24;29.46
20350;BME280;10332;50.208;18.988;2022-07-23T13:24:36;97785.50;;;36.34;29.71
20350;BME280;10332;50.208;18.988;2022-07-23T13:27:06;97771.13;;;36.24;31.21